Time;durP1;ratioP1;P1;durP2;ratioP2;P2;SDS_P1;SDS_P2;PMS_P1;PMS_P2;Temp;Humidity;BMP_temperature;BMP_pressure;BME280_temperature;BME280_humidity;BME280_pressure;Samples;Min_cycle;Max_cycle;Signal;HPM_P1;HPM_P2
2021/07/23 00:01:37;;;;;;;13.07;6.72;;;;;;;28.01;41.51;99856.81;4485221;32;33580;-64
2021/07/23 00:04:05;;;;;;;8.77;6.72;;;;;;;28.00;41.69;99855.97;4485352;32;34524;-65
2021/07/23 00:06:33;;;;;;;11.57;6.20;;;;;;;28.01;41.59;99863.13;4485489;32;33932;-64
2021/07/23 00:09:00;;;;;;;15.52;6.00;;;;;;;28.02;41.65;99861.19;4485251;32;33615;-64
2021/07/23 00:11:28;;;;;;;11.45;6.25;;;;;;;28.01;41.81;99859.53;4485177;32;34507;-64
2021/07/23 00:13:56;;;;;;;12.88;6.82;;;;;;;28.00;41.72;99855.97;4485245;32;33523;-64
2021/07/23 00:16:23;;;;;;;9.32;6.12;;;;;;;28.02;41.59;99852.97;4485227;32;34640;-64
2021/07/23 00:18:51;;;;;;;13.25;6.07;;;;;;;28.01;41.54;99854.06;4485334;32;34088;-65
2021/07/23 00:21:18;;;;;;;11.82;5.82;;;;;;;28.00;41.70;99855.97;4485261;32;34530;-65
2021/07/23 00:23:45;;;;;;;10.98;6.03;;;;;;;28.02;41.83;99861.19;4484957;31;33444;-64
2021/07/23 00:26:14;;;;;;;12.02;5.90;;;;;;;27.99;41.75;99851.59;4485273;32;34670;-64
2021/07/23 00:28:41;;;;;;;10.32;5.90;;;;;;;28.00;41.57;99858.72;4485095;32;34126;-64
2021/07/23 00:31:09;;;;;;;9.77;6.18;;;;;;;28.01;41.55;99856.81;4485089;32;33927;-64
2021/07/23 00:33:37;;;;;;;9.27;6.22;;;;;;;28.00;41.45;99855.16;4485447;32;34229;-64
2021/07/23 00:36:04;;;;;;;10.93;5.97;;;;;;;27.99;41.58;99857.06;4485273;32;33508;-64
2021/07/23 00:38:32;;;;;;;11.10;5.97;;;;;;;27.99;41.72;99859.00;4485003;32;34146;-64
2021/07/23 00:41:00;;;;;;;17.52;6.65;;;;;;;27.99;41.61;99861.72;4485144;32;34632;-64
2021/07/23 00:43:27;;;;;;;8.77;5.95;;;;;;;27.99;41.54;99861.72;4485187;32;33483;-64
2021/07/23 00:45:55;;;;;;;15.55;6.22;;;;;;;27.99;41.70;99862.56;4484889;31;34879;-65
2021/07/23 00:48:23;;;;;;;11.27;6.20;;;;;;;27.99;41.71;99861.72;4471185;32;35104;-64
2021/07/23 00:50:51;;;;;;;8.35;5.57;;;;;;;27.99;41.70;99859.81;4483839;32;33907;-64
2021/07/23 00:53:19;;;;;;;10.13;6.68;;;;;;;27.99;41.40;99862.56;4471114;32;34222;-64
2021/07/23 00:55:54;;;;;;;11.40;6.03;;;;;;;27.98;41.31;99860.91;4484144;32;34115;-64
2021/07/23 00:58:23;;;;;;;8.25;5.80;;;;;;;27.98;41.32;99858.16;4483667;32;34103;-64
2021/07/23 01:00:52;;;;;;;10.27;5.87;;;;;;;27.97;41.26;99849.06;4471303;32;33554;-64
2021/07/23 01:03:24;;;;;;;9.35;5.97;;;;;;;27.96;41.33;99854.81;4467667;32;33235;-64
2021/07/23 01:05:52;;;;;;;7.85;6.45;;;;;;;27.97;41.42;99851.00;4469414;32;33980;-65
2021/07/23 01:08:21;;;;;;;8.50;6.25;;;;;;;27.97;41.34;99854.56;4455437;32;33760;-65
2021/07/23 01:10:49;;;;;;;9.45;6.12;;;;;;;27.97;41.39;99849.06;4469441;32;33955;-64
2021/07/23 01:13:18;;;;;;;9.57;6.25;;;;;;;27.97;41.35;99845.50;4468055;32;33515;-65
2021/07/23 01:15:45;;;;;;;7.47;5.90;;;;;;;27.96;41.29;99846.59;4482420;32;34657;-64
2021/07/23 01:18:13;;;;;;;8.68;6.45;;;;;;;27.96;41.40;99841.13;4470175;32;34136;-64
2021/07/23 01:20:43;;;;;;;7.87;5.68;;;;;;;27.96;41.46;99843.84;4483439;32;33967;-64
2021/07/23 01:23:11;;;;;;;9.45;6.57;;;;;;;27.95;41.48;99840.28;4468019;32;33471;-64
2021/07/23 01:25:39;;;;;;;9.27;5.50;;;;;;;27.96;41.42;99849.34;4468201;32;35111;-64
2021/07/23 01:28:07;;;;;;;10.55;5.72;;;;;;;27.96;41.13;99836.47;4468050;32;34703;-64
2021/07/23 01:30:35;;;;;;;10.20;6.10;;;;;;;27.96;41.13;99838.38;4467817;32;33870;-65
2021/07/23 01:33:03;;;;;;;8.65;5.87;;;;;;;27.94;41.29;99840.56;4469368;32;33473;-65
2021/07/23 01:35:31;;;;;;;9.70;6.43;;;;;;;27.94;41.36;99843.28;4480320;32;33572;-64
2021/07/23 01:37:59;;;;;;;8.57;5.97;;;;;;;27.93;41.45;99837.00;4483459;32;34044;-64
2021/07/23 01:40:27;;;;;;;9.85;6.40;;;;;;;27.93;41.55;99833.37;4483683;32;33794;-64
2021/07/23 01:42:55;;;;;;;9.65;6.00;;;;;;;27.93;41.46;99847.09;4484876;32;33368;-64
2021/07/23 01:45:23;;;;;;;8.35;6.00;;;;;;;27.94;41.58;99840.56;4483362;32;33982;-64
2021/07/23 01:47:57;;;;;;;7.35;5.60;;;;;;;27.94;41.68;99840.56;4484607;32;34972;-64
2021/07/23 01:50:24;;;;;;;8.23;5.57;;;;;;;27.94;41.71;99843.28;4484919;32;33849;-64
2021/07/23 01:52:53;;;;;;;11.40;5.90;;;;;;;27.94;41.70;99837.81;4484938;32;33614;-65
2021/07/23 01:55:22;;;;;;;9.10;6.30;;;;;;;27.94;41.72;99838.63;4484485;32;34727;-65
2021/07/23 01:57:49;;;;;;;9.07;5.72;;;;;;;27.94;41.71;99837.81;4484564;32;34764;-65
2021/07/23 02:00:17;;;;;;;8.15;5.90;;;;;;;27.94;41.57;99837.81;4483385;32;33537;-64
2021/07/23 02:02:47;;;;;;;7.85;5.62;;;;;;;27.93;41.71;99834.25;4484410;32;33137;-64
2021/07/23 02:05:16;;;;;;;9.85;6.20;;;;;;;27.93;41.68;99838.88;4484596;32;33962;-65
2021/07/23 02:07:43;;;;;;;7.65;5.70;;;;;;;27.91;41.48;99833.66;4484883;32;33959;-64
2021/07/23 02:10:12;;;;;;;9.77;6.03;;;;;;;27.93;41.37;99842.47;4484640;32;35035;-64
2021/07/23 02:12:40;;;;;;;10.10;5.78;;;;;;;27.93;41.57;99830.66;4484681;32;32944;-64
2021/07/23 02:15:08;;;;;;;7.60;5.95;;;;;;;27.93;41.49;99831.50;4484306;32;34357;-64
2021/07/23 02:17:36;;;;;;;9.73;6.10;;;;;;;27.92;41.67;99829.00;4484476;32;33993;-64
2021/07/23 02:20:05;;;;;;;8.32;5.97;;;;;;;27.91;41.64;99828.16;4483867;32;34468;-65
2021/07/23 02:22:35;;;;;;;9.00;5.72;;;;;;;27.93;41.56;99833.37;4484112;32;33570;-65
2021/07/23 02:25:04;;;;;;;12.70;5.93;;;;;;;27.91;41.57;99832.84;4484707;32;35597;-64
2021/07/23 02:27:34;;;;;;;8.65;5.65;;;;;;;27.92;41.58;99826.25;4484281;32;33999;-64
2021/07/23 02:30:02;;;;;;;;;;;;;;;27.91;41.59;99822.69;4484525;32;33866;-65
2021/07/23 02:32:32;;;;;;;10.52;5.85;;;;;;;28.02;41.44;99820.88;4484822;32;33901;-65
2021/07/23 02:34:59;;;;;;;8.30;5.78;;;;;;;27.94;41.44;99819.44;4484253;32;34653;-64
2021/07/23 02:37:30;;;;;;;13.02;6.35;;;;;;;27.92;41.25;99829.00;4484440;32;35264;-63
2021/07/23 02:39:58;;;;;;;12.23;5.47;;;;;;;27.91;41.46;99824.59;4484322;32;34166;-63
2021/07/23 02:42:25;;;;;;;13.90;6.40;;;;;;;27.91;41.47;99827.34;4484151;32;34828;-64
2021/07/23 02:44:53;;;;;;;10.02;5.97;;;;;;;27.89;41.19;99821.31;4482621;31;34084;-64
2021/07/23 02:47:21;;;;;;;15.43;6.78;;;;;;;27.89;41.30;99824.03;4484476;32;34670;-65
2021/07/23 02:49:50;;;;;;;15.40;6.32;;;;;;;27.89;41.31;99815.81;4484489;32;33851;-64
2021/07/23 02:52:18;;;;;;;16.45;6.37;;;;;;;27.90;41.29;99820.22;4484345;32;33186;-64
2021/07/23 02:54:46;;;;;;;15.18;6.65;;;;;;;27.89;41.37;99813.91;4483130;32;34560;-64
2021/07/23 02:57:14;;;;;;;10.82;5.95;;;;;;;27.89;41.31;99821.31;4483167;32;33640;-64
2021/07/23 02:59:43;;;;;;;15.27;6.70;;;;;;;27.89;41.28;99818.56;4483192;32;34137;-64
2021/07/23 03:02:12;;;;;;;14.07;5.77;;;;;;;27.88;41.24;99816.88;4484166;32;33145;-64
2021/07/23 03:04:40;;;;;;;12.05;6.03;;;;;;;27.89;41.22;99819.38;4482899;32;34452;-64
2021/07/23 03:07:08;;;;;;;14.85;6.12;;;;;;;27.88;41.21;99808.66;4484223;32;34107;-64
2021/07/23 03:09:36;;;;;;;18.62;7.25;;;;;;;27.88;41.23;99812.22;4483782;32;33596;-65
2021/07/23 03:12:04;;;;;;;11.85;6.07;;;;;;;27.88;41.20;99803.16;4484040;31;33517;-64
2021/07/23 03:14:33;;;;;;;13.20;6.28;;;;;;;27.88;41.24;99803.16;4483978;32;33637;-65
2021/07/23 03:17:01;;;;;;;14.70;5.93;;;;;;;27.89;41.23;99802.09;4484057;32;34013;-64
2021/07/23 03:19:29;;;;;;;10.63;6.07;;;;;;;27.88;41.23;99804.00;4483532;32;33744;-64
2021/07/23 03:21:57;;;;;;;16.60;6.43;;;;;;;27.88;41.23;99805.91;4483961;32;33046;-64
2021/07/23 03:24:25;;;;;;;14.85;6.32;;;;;;;27.88;41.26;99811.37;4482631;32;34371;-64
2021/07/23 03:26:53;;;;;;;15.55;6.25;;;;;;;27.87;41.21;99813.31;4483780;32;33732;-64
2021/07/23 03:29:21;;;;;;;14.00;6.18;;;;;;;27.89;41.20;99813.06;4483818;32;34711;-64
2021/07/23 03:31:48;;;;;;;12.63;5.80;;;;;;;27.88;41.25;99814.12;4485250;32;34080;-64
2021/07/23 03:34:16;;;;;;;10.77;5.82;;;;;;;27.88;41.23;99808.66;4483797;32;33312;-64
2021/07/23 03:36:46;;;;;;;12.52;6.50;;;;;;;27.88;41.21;99808.66;4484367;32;34860;-64
2021/07/23 03:39:14;;;;;;;10.68;6.50;;;;;;;27.88;41.18;99806.72;4485598;32;34003;-65
2021/07/23 03:41:42;;;;;;;14.70;5.82;;;;;;;27.87;41.19;99807.81;4485610;32;33139;-65
2021/07/23 03:44:12;;;;;;;14.80;6.65;;;;;;;27.87;41.19;99810.56;4485498;32;34909;-64
2021/07/23 03:46:40;;;;;;;13.43;6.43;;;;;;;27.88;41.18;99806.72;4485496;32;34838;-64
2021/07/23 03:49:08;;;;;;;14.27;6.40;;;;;;;27.87;41.18;99807.81;4485125;32;33909;-64
2021/07/23 03:51:37;;;;;;;8.98;6.05;;;;;;;27.87;41.16;99807.00;4485382;32;33426;-64
2021/07/23 03:54:05;;;;;;;9.00;6.07;;;;;;;27.88;41.14;99805.91;4485250;32;33722;-65
2021/07/23 03:56:33;;;;;;;13.30;5.90;;;;;;;27.86;41.12;99805.34;4485490;32;34006;-64
2021/07/23 03:59:01;;;;;;;9.50;5.60;;;;;;;27.87;41.13;99804.25;4484263;32;34471;-65
2021/07/23 04:01:30;;;;;;;10.40;5.15;;;;;;;27.86;41.16;99810.84;4485491;32;33381;-65
2021/07/23 04:03:58;;;;;;;13.98;5.65;;;;;;;27.87;41.15;99812.47;4485286;32;33982;-64
2021/07/23 04:06:28;;;;;;;9.85;5.68;;;;;;;27.85;41.17;99804.53;4485440;32;33948;-65
2021/07/23 04:08:57;;;;;;;13.77;6.82;;;;;;;27.86;41.18;99805.34;4485208;32;33947;-65
2021/07/23 04:11:28;;;;;;;10.07;5.65;;;;;;;27.86;41.18;99808.91;4485293;32;33250;-64
2021/07/23 04:13:57;;;;;;;8.98;6.75;;;;;;;27.86;41.16;99810.84;4485621;32;34678;-65
2021/07/23 04:16:25;;;;;;;9.13;5.85;;;;;;;27.87;41.17;99804.25;4485137;32;34116;-65
2021/07/23 04:18:53;;;;;;;11.07;5.85;;;;;;;27.85;41.16;99815.50;4484345;32;35117;-64
2021/07/23 04:21:20;;;;;;;9.55;6.03;;;;;;;27.84;41.17;99808.34;4485542;32;34144;-65
2021/07/23 04:23:50;;;;;;;12.73;6.55;;;;;;;27.85;41.17;99811.91;4485329;32;33995;-65
2021/07/23 04:26:18;;;;;;;12.45;5.68;;;;;;;27.85;41.18;99815.50;4485556;32;34106;-65
2021/07/23 04:28:46;;;;;;;11.45;6.07;;;;;;;27.86;41.17;99813.56;4485492;32;34699;-65
2021/07/23 04:31:15;;;;;;;10.10;6.18;;;;;;;27.86;41.14;99810.84;4485225;32;33840;-64
2021/07/23 04:33:43;;;;;;;11.98;5.60;;;;;;;27.86;41.09;99813.56;4485153;32;34524;-65
2021/07/23 04:36:18;;;;;;;11.25;5.57;;;;;;;27.85;41.17;99818.22;4485082;32;35114;-65
2021/07/23 04:38:45;;;;;;;12.18;5.45;;;;;;;27.85;41.18;99815.50;4485334;32;34484;-65
2021/07/23 04:41:13;;;;;;;16.27;5.80;;;;;;;27.86;41.23;99813.56;4484960;32;33380;-65
2021/07/23 04:43:43;;;;;;;10.93;5.97;;;;;;;27.86;41.28;99813.56;4484549;32;35076;-65
2021/07/23 04:46:11;;;;;;;15.77;6.15;;;;;;;27.86;41.28;99813.56;4485149;32;34055;-65
2021/07/23 04:48:39;;;;;;;9.73;5.87;;;;;;;27.86;41.32;99819.06;4485167;32;33783;-64
2021/07/23 04:51:08;;;;;;;10.38;5.80;;;;;;;27.86;41.31;99808.09;4484911;32;33492;-69
2021/07/23 04:53:43;;;;;;;17.60;6.00;;;;;;;27.85;41.34;99803.69;4471160;32;33500;-68
2021/07/23 04:56:13;;;;;;;11.85;6.45;;;;;;;27.86;41.10;99811.66;4485104;31;32645;-68
2021/07/23 04:58:41;;;;;;;20.17;6.28;;;;;;;27.87;40.87;99815.22;4483537;32;33837;-68
2021/07/23 05:01:08;;;;;;;13.43;6.72;;;;;;;27.85;40.83;99810.00;4483604;32;33240;-68
2021/07/23 05:03:37;;;;;;;19.85;6.82;;;;;;;27.83;40.59;99812.16;4484622;32;33895;-68
2021/07/23 05:06:06;;;;;;;15.63;7.40;;;;;;;27.80;40.60;99804.47;4483309;32;32600;-68
2021/07/23 05:08:36;;;;;;;14.50;7.78;;;;;;;27.78;40.60;99809.34;4485032;32;33742;-68
2021/07/23 05:11:08;;;;;;;16.90;7.15;;;;;;;27.76;40.58;99808.81;4475801;31;33476;-68
2021/07/23 05:13:36;;;;;;;11.77;7.10;;;;;;;27.75;40.63;99801.66;4486189;31;33835;-68
2021/07/23 05:16:04;;;;;;;10.63;6.80;;;;;;;27.74;40.58;99807.38;4499366;31;33980;-68
2021/07/23 05:18:32;;;;;;;14.57;7.47;;;;;;;27.71;40.56;99804.09;4500414;31;33849;-68
2021/07/23 05:20:59;;;;;;;15.80;7.75;;;;;;;27.70;40.56;99813.38;4486252;31;33351;-68
2021/07/23 05:23:27;;;;;;;17.42;8.30;;;;;;;27.69;40.62;99814.41;4473649;31;33933;-68
2021/07/23 05:25:55;;;;;;;20.65;11.20;;;;;;;27.68;40.70;99809.22;4500213;31;34807;-67
2021/07/23 05:28:22;;;;;;;13.23;10.63;;;;;;;27.65;40.72;99802.34;4486268;31;33082;-68
2021/07/23 05:31:06;;;;;;;15.85;9.13;;;;;;;27.65;40.77;99805.06;4499182;31;33971;-68
2021/07/23 05:33:33;;;;;;;15.35;9.18;;;;;;;27.64;40.76;99800.66;4499152;31;33868;-67
2021/07/23 05:36:01;;;;;;;13.88;8.98;;;;;;;27.63;40.73;99801.75;4499465;31;33440;-68
2021/07/23 05:38:31;;;;;;;15.45;8.98;;;;;;;27.62;40.72;99802.84;4498944;31;34087;-67
2021/07/23 05:41:06;;;;;;;14.68;7.70;;;;;;;27.62;40.73;99802.00;4500681;31;33902;-68
2021/07/23 05:43:34;;;;;;;12.93;7.97;;;;;;;27.61;40.74;99806.66;4493034;31;33864;-69
2021/07/23 05:46:05;;;;;;;14.95;8.48;;;;;;;27.61;40.69;99812.16;4482931;32;34085;-66
2021/07/23 05:48:37;;;;;;;18.80;8.30;;;;;;;27.60;40.79;99815.12;4484667;32;34927;-66
2021/07/23 05:51:05;;;;;;;17.73;8.30;;;;;;;27.59;40.87;99808.81;4483930;32;33458;-65
2021/07/23 05:53:32;;;;;;;11.93;8.35;;;;;;;27.61;40.91;99805.84;4484070;32;33876;-65
2021/07/23 05:56:00;;;;;;;15.15;8.60;;;;;;;27.61;41.08;99805.84;4483767;32;34068;-66
2021/07/23 05:58:28;;;;;;;16.98;9.15;;;;;;;27.62;41.07;99807.50;4484317;32;34714;-66
2021/07/23 06:00:56;;;;;;;11.80;7.90;;;;;;;27.63;41.03;99800.91;4470422;32;33853;-66
2021/07/23 06:03:25;;;;;;;10.85;7.85;;;;;;;27.63;41.01;99798.19;4484341;32;33594;-66
2021/07/23 06:05:54;;;;;;;17.30;8.50;;;;;;;27.64;41.02;99805.31;4484343;32;34091;-66
2021/07/23 06:08:21;;;;;;;14.35;8.20;;;;;;;27.66;40.96;99808.66;4484728;32;33901;-66
2021/07/23 06:10:49;;;;;;;18.70;7.90;;;;;;;27.66;40.95;99797.69;4484380;32;33485;-66
2021/07/23 06:13:16;;;;;;;16.62;8.18;;;;;;;27.66;40.93;99800.41;4484026;32;34654;-66
2021/07/23 06:15:44;;;;;;;12.90;7.75;;;;;;;27.66;40.92;99798.50;4483779;32;34097;-66
2021/07/23 06:18:12;;;;;;;15.25;7.97;;;;;;;27.68;40.90;99811.94;4484632;32;34591;-66
2021/07/23 06:20:42;;;;;;;10.73;7.35;;;;;;;27.67;40.89;99804.81;4484250;32;34184;-66
2021/07/23 06:23:09;;;;;;;11.80;7.37;;;;;;;27.67;40.90;99807.56;4484048;32;33878;-65
2021/07/23 06:25:37;;;;;;;9.30;7.18;;;;;;;27.69;40.87;99813.59;4484256;32;34244;-65
2021/07/23 06:28:05;;;;;;;9.38;7.53;;;;;;;27.69;40.85;99805.38;4483688;32;34392;-66
2021/07/23 06:30:32;;;;;;;9.95;7.30;;;;;;;27.69;40.86;99808.94;4484627;32;32354;-66
2021/07/23 06:33:00;;;;;;;12.88;7.32;;;;;;;27.69;40.84;99814.41;4484629;32;34338;-66
2021/07/23 06:35:30;;;;;;;12.20;7.78;;;;;;;27.71;40.85;99815.03;4483132;32;34932;-67
2021/07/23 06:37:58;;;;;;;10.15;7.37;;;;;;;27.71;40.84;99816.94;4484637;32;34228;-66
2021/07/23 06:40:25;;;;;;;13.25;7.37;;;;;;;27.71;40.83;99815.03;4484265;32;34190;-66
2021/07/23 06:42:53;;;;;;;11.00;6.85;;;;;;;27.70;40.84;99816.09;4484219;32;34787;-66
2021/07/23 06:45:20;;;;;;;9.73;6.20;;;;;;;27.71;40.83;99814.19;4484117;32;34162;-67
2021/07/23 06:47:48;;;;;;;11.77;8.00;;;;;;;27.71;40.83;99812.31;4484134;32;34545;-65
2021/07/23 06:50:15;;;;;;;10.45;6.85;;;;;;;27.70;40.84;99813.38;4483100;32;31738;-66
2021/07/23 06:52:43;;;;;;;9.70;6.93;;;;;;;27.71;40.87;99805.97;4484491;32;33934;-67
2021/07/23 06:55:12;;;;;;;12.37;7.15;;;;;;;27.71;40.86;99806.81;4484035;32;34063;-66
2021/07/23 06:57:39;;;;;;;12.90;6.83;;;;;;;27.71;40.86;99815.03;4483820;32;33785;-66
2021/07/23 07:00:07;;;;;;;10.00;7.22;;;;;;;27.73;40.86;99813.97;4483825;32;34479;-67
2021/07/23 07:02:35;;;;;;;9.88;7.05;;;;;;;27.72;40.88;99810.37;4484008;32;33956;-66
2021/07/23 07:05:03;;;;;;;10.60;6.93;;;;;;;27.72;40.87;99813.13;4483407;32;34064;-65
2021/07/23 07:07:30;;;;;;;9.90;7.15;;;;;;;27.73;40.88;99808.47;4483715;32;33892;-65
2021/07/23 07:09:58;;;;;;;11.80;6.97;;;;;;;27.74;40.86;99810.13;4483456;32;33447;-66
2021/07/23 07:12:25;;;;;;;10.20;6.62;;;;;;;27.73;40.88;99814.78;4483767;32;33986;-66
2021/07/23 07:14:53;;;;;;;11.88;7.55;;;;;;;27.75;40.86;99820.03;4479540;32;135018;-65
2021/07/23 07:17:21;;;;;;;9.73;6.97;;;;;;;27.74;40.85;99810.94;4483733;32;34001;-66
2021/07/23 07:19:49;;;;;;;9.00;7.15;;;;;;;27.77;40.84;99812.38;4483985;32;33749;-67
2021/07/23 07:22:17;;;;;;;10.13;6.95;;;;;;;27.75;40.86;99811.81;4483839;32;33504;-66
2021/07/23 07:24:45;;;;;;;9.48;7.03;;;;;;;27.75;40.87;99815.38;4483512;32;35296;-66
2021/07/23 07:27:13;;;;;;;11.77;7.25;;;;;;;27.77;40.88;99815.09;4483923;32;33884;-65
2021/07/23 07:29:40;;;;;;;8.48;6.78;;;;;;;27.77;40.89;99809.63;4483795;32;33648;-66
2021/07/23 07:32:08;;;;;;;9.40;6.78;;;;;;;27.77;40.95;99810.44;4482420;32;34671;-67
2021/07/23 07:34:36;;;;;;;8.35;6.60;;;;;;;27.78;40.91;99812.09;4483631;32;34182;-67
2021/07/23 07:37:04;;;;;;;10.65;7.00;;;;;;;27.78;40.95;99801.13;4483587;32;33895;-66
2021/07/23 07:39:32;;;;;;;12.23;6.43;;;;;;;27.79;40.93;99801.97;4483212;32;33425;-67
2021/07/23 07:42:01;;;;;;;8.77;6.72;;;;;;;27.79;40.93;99802.78;4483549;32;34307;-66
2021/07/23 07:44:28;;;;;;;10.27;6.90;;;;;;;27.81;40.93;99805.28;4483358;32;34957;-66
2021/07/23 07:46:56;;;;;;;9.38;6.85;;;;;;;27.82;40.91;99798.72;4483335;32;34488;-67
2021/07/23 07:49:23;;;;;;;9.82;6.43;;;;;;;27.81;40.92;99799.81;4483538;32;33541;-66
2021/07/23 07:51:51;;;;;;;9.52;6.72;;;;;;;27.82;40.91;99794.06;4483306;32;34722;-66
2021/07/23 07:54:18;;;;;;;11.95;6.95;;;;;;;27.83;40.93;99792.12;4483125;32;33575;-66
2021/07/23 07:56:46;;;;;;;12.45;6.57;;;;;;;27.83;40.93;99792.12;4483413;32;33888;-66
2021/07/23 07:59:13;;;;;;;9.85;6.07;;;;;;;27.84;40.96;99796.53;4482768;32;33068;-66
2021/07/23 08:01:41;;;;;;;9.07;6.47;;;;;;;27.83;40.96;99792.97;4483208;32;33981;-66
2021/07/23 08:04:09;;;;;;;10.48;6.95;;;;;;;27.84;40.98;99796.53;4483181;32;34099;-66
2021/07/23 08:06:38;;;;;;;8.50;6.57;;;;;;;27.85;40.97;99795.47;4482880;32;33817;-66
2021/07/23 08:09:08;;;;;;;8.05;5.87;;;;;;;27.84;40.98;99797.38;4482868;32;34076;-66
2021/07/23 08:11:36;;;;;;;7.10;6.07;;;;;;;27.85;40.97;99798.22;4483125;32;34659;-66
2021/07/23 08:14:05;;;;;;;11.40;6.28;;;;;;;27.86;40.98;99794.38;4468743;32;33930;-66
2021/07/23 08:16:32;;;;;;;8.15;6.12;;;;;;;27.85;40.99;99790.00;4483115;32;33904;-66
2021/07/23 08:19:00;;;;;;;10.70;6.20;;;;;;;27.85;41.00;99790.00;4483580;32;33447;-65
2021/07/23 08:21:31;;;;;;;10.93;7.03;;;;;;;27.85;41.00;99792.72;4485087;32;33970;-66
2021/07/23 08:24:02;;;;;;;11.10;6.22;;;;;;;27.86;41.01;99799.88;4485274;32;34821;-66
2021/07/23 08:26:29;;;;;;;9.30;6.28;;;;;;;27.86;41.04;99795.22;4485060;32;33601;-65
2021/07/23 08:28:57;;;;;;;11.90;6.62;;;;;;;27.86;41.02;99797.13;4485145;32;33312;-66
2021/07/23 08:31:27;;;;;;;8.93;6.22;;;;;;;27.86;41.04;99797.13;4485045;32;33752;-65
2021/07/23 08:33:55;;;;;;;7.87;5.78;;;;;;;27.86;41.04;99795.22;4485280;32;34046;-63
2021/07/23 08:36:22;;;;;;;9.52;6.00;;;;;;;27.86;41.04;99797.94;4485070;32;33519;-65
2021/07/23 08:38:51;;;;;;;12.82;6.30;;;;;;;27.87;41.03;99791.38;4485191;32;34141;-67
2021/07/23 08:41:18;;;;;;;10.63;6.30;;;;;;;27.86;41.04;99795.22;4483622;32;32512;-66
2021/07/23 08:43:46;;;;;;;7.97;5.90;;;;;;;27.86;41.05;99795.22;4484944;31;34865;-66
2021/07/23 08:46:15;;;;;;;7.78;6.05;;;;;;;27.86;41.05;99795.22;4485427;32;33561;-66
2021/07/23 08:48:43;;;;;;;9.57;6.05;;;;;;;27.86;41.06;99792.47;4483863;32;34282;-66
2021/07/23 08:51:10;;;;;;;9.27;6.20;;;;;;;27.87;41.04;99793.28;4483700;32;34084;-67
2021/07/23 08:53:38;;;;;;;9.45;6.20;;;;;;;27.87;41.03;99794.13;4485054;32;34106;-66
2021/07/23 08:56:06;;;;;;;8.38;6.68;;;;;;;27.87;41.04;99791.38;4485011;32;33853;-67
2021/07/23 08:58:33;;;;;;;7.30;5.87;;;;;;;27.88;41.04;99793.03;4484337;32;33659;-66
2021/07/23 09:01:01;;;;;;;7.95;6.00;;;;;;;27.88;41.05;99778.47;4484902;32;33485;-66
2021/07/23 09:03:29;;;;;;;7.62;5.78;;;;;;;27.88;41.05;99784.78;4485055;32;34216;-67
2021/07/23 09:05:58;;;;;;;9.55;6.62;;;;;;;27.88;41.05;99778.47;4485034;32;34875;-65
2021/07/23 09:08:25;;;;;;;10.90;6.40;;;;;;;27.89;41.07;99785.66;4484884;32;33516;-65
2021/07/23 09:11:03;;;;;;;8.55;5.97;;;;;;;27.89;41.07;99782.91;4484772;32;33854;-65
2021/07/23 09:13:31;;;;;;;8.05;5.62;;;;;;;27.90;41.06;99779.06;4484874;32;34081;-66
2021/07/23 09:15:59;;;;;;;7.95;5.97;;;;;;;27.88;41.08;99776.56;4485228;32;33767;-66
2021/07/23 09:18:31;;;;;;;7.97;5.90;;;;;;;27.89;41.09;99771.94;4484738;32;33601;-65
2021/07/23 09:21:00;;;;;;;8.45;6.15;;;;;;;27.88;41.10;99779.31;4484944;32;34065;-66
2021/07/23 09:23:39;;;;;;;7.57;5.97;;;;;;;27.88;41.12;99773.00;4484847;32;34099;-66
2021/07/23 09:26:07;;;;;;;;;;;;;;;27.90;41.11;99770.84;4483653;32;32471;-66
2021/07/23 09:28:38;;;;;;;6.57;5.20;;;;;;;27.98;40.91;99767.66;4484537;32;33909;-67
2021/07/23 09:31:07;;;;;;;8.00;5.60;;;;;;;27.90;41.07;99777.16;4484599;32;34752;-66
2021/07/23 09:33:35;;;;;;;6.70;5.55;;;;;;;27.88;41.14;99773.00;4484889;32;33944;-66
2021/07/23 09:36:06;;;;;;;8.10;5.97;;;;;;;27.88;41.16;99779.31;4484723;32;33463;-66
2021/07/23 09:38:44;;;;;;;8.70;5.95;;;;;;;27.86;41.19;99764.22;4484592;32;33400;-66
2021/07/23 09:41:13;;;;;;;8.00;6.10;;;;;;;27.88;41.17;99767.53;4483601;32;34592;-67
2021/07/23 09:43:41;;;;;;;8.47;5.70;;;;;;;27.87;41.17;99769.44;4484629;32;34148;-67
2021/07/23 09:46:18;;;;;;;9.35;6.47;;;;;;;27.87;41.16;99763.94;4470557;32;34567;-66
2021/07/23 09:48:46;;;;;;;6.53;5.35;;;;;;;27.88;41.17;99754.63;4484730;32;33417;-66
2021/07/23 09:51:14;;;;;;;7.30;5.87;;;;;;;27.87;41.20;99750.25;4484660;32;33809;-66
2021/07/23 09:53:43;;;;;;;8.07;5.97;;;;;;;27.87;41.19;99754.91;4484305;32;34097;-66
2021/07/23 09:56:10;;;;;;;7.80;6.03;;;;;;;27.87;41.20;99746.69;4484549;32;34457;-67
2021/07/23 09:58:42;;;;;;;9.00;5.50;;;;;;;27.87;41.19;99747.50;4484637;32;32707;-66
2021/07/23 10:01:29;;;;;;;7.95;5.95;;;;;;;27.88;41.21;99748.31;4484911;32;33891;-66
2021/07/23 10:04:00;;;;;;;8.38;5.43;;;;;;;27.90;41.17;99741.50;4484849;32;34853;-67
2021/07/23 10:06:33;;;;;;;8.05;6.00;;;;;;;27.88;41.23;99738.19;4470978;32;33436;-67
2021/07/23 10:09:09;;;;;;;8.13;5.80;;;;;;;27.88;41.24;99748.31;4483248;32;33425;-65
2021/07/23 10:11:40;;;;;;;6.90;5.22;;;;;;;27.90;41.24;99754.41;4483320;32;33858;-66
2021/07/23 10:14:13;;;;;;;7.60;5.80;;;;;;;27.88;41.25;99746.41;4482955;32;34579;-66
2021/07/23 10:16:40;;;;;;;7.12;5.65;;;;;;;27.88;41.26;99738.19;4483541;32;33883;-66
2021/07/23 10:19:08;;;;;;;6.60;5.32;;;;;;;27.89;41.25;99736.28;4483345;32;33422;-65
2021/07/23 10:21:35;;;;;;;7.47;5.75;;;;;;;27.90;41.25;99735.19;4484176;32;33884;-64
2021/07/23 10:24:03;;;;;;;8.18;5.87;;;;;;;27.88;41.25;99732.69;4472270;32;34841;-67
2021/07/23 10:26:31;;;;;;;7.10;5.45;;;;;;;27.89;41.24;99726.16;4483263;32;34654;-67
2021/07/23 10:28:58;;;;;;;7.37;5.45;;;;;;;27.89;41.25;99728.91;4470167;32;34153;-66
2021/07/23 10:31:27;;;;;;;6.20;5.15;;;;;;;27.88;41.25;99729.13;4484493;32;34110;-66
2021/07/23 10:33:59;;;;;;;7.43;5.35;;;;;;;27.90;41.26;99732.47;4484798;32;34110;-67
2021/07/23 10:36:26;;;;;;;6.78;5.35;;;;;;;27.90;41.26;99716.00;4483911;32;34807;-66
2021/07/23 10:39:06;;;;;;;7.25;5.40;;;;;;;27.90;41.26;99705.03;4484264;32;33349;-65
2021/07/23 10:41:39;;;;;;;8.48;5.37;;;;;;;27.92;41.21;99716.56;4483321;32;33639;-66
2021/07/23 10:44:28;;;;;;;6.82;5.20;;;;;;;27.90;41.27;99716.00;4484222;32;34053;-66
2021/07/23 10:46:56;;;;;;;6.57;5.30;;;;;;;27.91;41.27;99717.66;4483873;32;34335;-67
2021/07/23 10:49:26;;;;;;;7.57;5.35;;;;;;;27.91;41.26;99712.16;4483349;32;33398;-67
2021/07/23 10:51:54;;;;;;;7.05;5.30;;;;;;;27.89;41.29;99704.22;4483456;32;34634;-67
2021/07/23 10:54:23;;;;;;;6.80;5.15;;;;;;;27.90;41.30;99708.59;4484006;32;33724;-67
2021/07/23 10:57:11;;;;;;;6.65;5.28;;;;;;;27.90;41.32;99713.25;4484252;32;33958;-67
2021/07/23 10:59:41;;;;;;;6.75;5.12;;;;;;;27.90;41.34;99707.78;4484150;32;33403;-66
2021/07/23 11:02:29;;;;;;;7.35;5.47;;;;;;;27.91;41.32;99706.69;4484145;32;34141;-66
2021/07/23 11:05:13;;;;;;;8.68;5.70;;;;;;;27.93;41.29;99708.09;4484025;32;35227;-67
2021/07/23 11:07:43;;;;;;;6.53;5.37;;;;;;;27.91;41.31;99702.03;4483924;32;33590;-67
2021/07/23 11:10:13;;;;;;;5.80;5.12;;;;;;;27.89;41.36;99690.50;4484015;32;33392;-65
2021/07/23 11:12:42;;;;;;;7.22;5.62;;;;;;;27.89;41.36;99687.75;4470070;32;32664;-65
2021/07/23 11:15:09;;;;;;;7.57;5.62;;;;;;;27.91;41.34;99684.75;4482475;32;34101;-67
2021/07/23 11:17:51;;;;;;;6.78;5.28;;;;;;;27.91;41.35;99687.50;4483916;32;34856;-66
2021/07/23 11:20:23;;;;;;;5.95;5.25;;;;;;;27.90;41.35;99683.94;4482766;32;32709;-67
2021/07/23 11:22:52;;;;;;;7.57;5.35;;;;;;;27.89;41.37;99682.28;4483535;32;33901;-66
2021/07/23 11:25:20;;;;;;;6.87;5.45;;;;;;;27.90;41.37;99683.94;4483696;32;33964;-66
2021/07/23 11:27:52;;;;;;;7.65;5.53;;;;;;;27.90;41.36;99677.62;4482358;32;34156;-66
2021/07/23 11:30:22;;;;;;;7.32;5.75;;;;;;;27.90;41.38;99669.38;4482594;32;34413;-67
2021/07/23 11:32:54;;;;;;;6.93;4.85;;;;;;;27.90;41.38;99674.88;4483923;32;33928;-67
2021/07/23 11:35:22;;;;;;;6.57;5.28;;;;;;;27.90;41.36;99664.72;4483551;32;33981;-67
2021/07/23 11:37:50;;;;;;;6.45;5.00;;;;;;;27.90;41.37;99667.47;4469612;32;33948;-67